Time;durP1;ratioP1;P1;durP2;ratioP2;P2;SDS_P1;SDS_P2;PMS_P1;PMS_P2;Temp;Humidity;BMP_temperature;BMP_pressure;BME280_temperature;BME280_humidity;BME280_pressure;Samples;Min_cycle;Max_cycle;Signal;HPM_P1;HPM_P2
2023/01/11 00:00:37;;;;;;;253.43;245.73;;;8.40;99.90;;;;;;4993273;28;20451;-81
2023/01/11 00:03:05;;;;;;;250.03;242.43;;;8.30;99.90;;;;;;4990694;28;20469;-80
2023/01/11 00:05:32;;;;;;;258.20;250.27;;;8.30;99.90;;;;;;5000188;28;20484;-80
2023/01/11 00:07:59;;;;;;;263.83;255.83;;;8.40;99.90;;;;;;4998946;28;20454;-81
2023/01/11 00:10:25;;;;;;;261.53;253.53;;;8.40;99.90;;;;;;5000751;28;20461;-81
2023/01/11 00:12:52;;;;;;;259.47;251.60;;;8.30;99.90;;;;;;4980950;28;20486;-80
2023/01/11 00:15:19;;;;;;;266.37;258.23;;;8.40;99.90;;;;;;4988062;28;21034;-84
2023/01/11 00:17:47;;;;;;;271.33;263.03;;;8.40;99.90;;;;;;4994553;28;20454;-81
2023/01/11 00:20:14;;;;;;;276.93;268.50;;;8.40;99.90;;;;;;4981313;28;20459;-82
2023/01/11 00:22:40;;;;;;;277.57;269.07;;;8.40;99.90;;;;;;4999155;28;20462;-80
2023/01/11 00:25:08;;;;;;;272.23;263.93;;;8.40;99.90;;;;;;5000897;28;20474;-82
2023/01/11 00:27:34;;;;;;;294.17;285.17;;;8.40;99.90;;;;;;4984144;28;20447;-81
2023/01/11 00:30:01;;;;;;;280.47;271.87;;;8.50;99.90;;;;;;4987361;28;20446;-81
2023/01/11 00:32:28;;;;;;;292.67;283.70;;;8.50;99.90;;;;;;4993745;28;20447;-81
2023/01/11 00:34:56;;;;;;;290.70;281.60;;;8.60;99.90;;;;;;4999332;28;20470;-81
2023/01/11 00:37:23;;;;;;;294.77;285.37;;;8.60;99.90;;;;;;4988154;28;20462;-82
2023/01/11 00:39:50;;;;;;;293.07;284.07;;;8.60;99.90;;;;;;4994108;28;20454;-81
2023/01/11 00:47:59;;;;;;;283.03;274.33;;;8.80;99.90;;;;;;5005982;28;20469;-81
2023/01/11 00:50:29;;;;;;;258.50;250.60;;;8.80;99.90;;;;;;4987532;28;20544;-81
2023/01/11 00:52:55;;;;;;;252.13;244.37;;;8.90;99.90;;;;;;4994703;28;20449;-81
2023/01/11 00:55:22;;;;;;;253.77;246.00;;;9.00;99.90;;;;;;4995084;28;20475;-81
2023/01/11 00:57:49;;;;;;;260.93;252.93;;;9.00;99.90;;;;;;4999165;28;20453;-82
2023/01/11 01:00:17;;;;;;;269.23;261.03;;;9.00;99.90;;;;;;4987386;28;20454;-81
2023/01/11 01:02:44;;;;;;;285.77;277.07;;;8.90;99.90;;;;;;4995884;28;20456;-82
2023/01/11 01:05:10;;;;;;;310.37;300.87;;;8.90;99.90;;;;;;4997365;28;20477;-81
2023/01/11 01:07:38;;;;;;;337.33;326.87;;;8.80;99.90;;;;;;4988533;28;20919;-82
2023/01/11 01:10:07;;;;;;;348.17;337.27;;;8.80;99.90;;;;;;4987309;28;20538;-82
2023/01/11 01:15:18;;;;;;;369.37;357.57;;;8.80;99.90;;;;;;4999926;28;20549;-81
2023/01/11 01:17:45;;;;;;;306.47;296.97;;;8.80;99.90;;;;;;4987494;28;20655;-81
2023/01/11 01:20:13;;;;;;;288.50;279.57;;;8.80;99.90;;;;;;4987957;28;20517;-81
2023/01/11 01:22:41;;;;;;;317.20;307.20;;;8.80;99.90;;;;;;4991704;28;20453;-80
2023/01/11 01:25:08;;;;;;;331.63;321.03;;;8.70;99.90;;;;;;5005495;28;21185;-81
2023/01/11 01:27:35;;;;;;;338.77;327.90;;;8.70;99.90;;;;;;4996770;28;20850;-81
2023/01/11 01:30:02;;;;;;;344.77;333.77;;;8.70;99.90;;;;;;4986749;28;20876;-81
2023/01/11 01:32:29;;;;;;;338.63;327.77;;;8.70;99.90;;;;;;5000944;28;20449;-81
2023/01/11 01:34:55;;;;;;;355.43;343.83;;;8.80;99.90;;;;;;5000399;28;20482;-81
2023/01/11 01:37:22;;;;;;;371.80;359.27;;;8.70;99.90;;;;;;4995081;28;20529;-81
2023/01/11 01:39:50;;;;;;;371.60;359.07;;;8.70;99.90;;;;;;4992909;28;20461;-81
2023/01/11 01:42:19;;;;;;;367.47;355.10;;;8.70;99.90;;;;;;4987630;28;20455;-81
2023/01/11 01:45:01;;;;;;;366.97;354.53;;;8.80;99.90;;;;;;5006465;28;20458;-81
2023/01/11 01:47:37;;;;;;;387.93;374.57;;;8.80;99.90;;;;;;4987706;28;20479;-81
2023/01/11 01:50:09;;;;;;;383.40;370.33;;;8.80;99.90;;;;;;4998625;28;20454;-81
2023/01/11 01:52:36;;;;;;;377.53;364.77;;;8.80;99.90;;;;;;4986450;28;20881;-82
2023/01/11 01:55:08;;;;;;;356.80;344.87;;;8.80;99.90;;;;;;5002778;28;20477;-81
2023/01/11 01:57:39;;;;;;;394.67;381.27;;;8.90;99.90;;;;;;4986641;28;20519;-82
2023/01/11 02:00:08;;;;;;;357.03;345.07;;;8.90;99.90;;;;;;4983348;28;20447;-81
2023/01/11 02:02:36;;;;;;;377.90;365.10;;;8.90;99.90;;;;;;4987104;28;20811;-82
2023/01/11 02:05:04;;;;;;;376.60;363.77;;;9.00;99.90;;;;;;4997245;28;20538;-81
2023/01/11 02:07:34;;;;;;;354.37;342.40;;;9.00;99.90;;;;;;4984337;28;20479;-81
2023/01/11 02:10:07;;;;;;;291.40;281.87;;;9.00;99.90;;;;;;4987926;28;20450;-81
2023/01/11 02:12:37;;;;;;;289.33;279.77;;;9.10;99.90;;;;;;5002458;28;20500;-81
2023/01/11 02:15:05;;;;;;;236.73;229.20;;;9.10;99.90;;;;;;4999502;28;20470;-82
2023/01/11 02:17:31;;;;;;;223.73;216.53;;;9.20;99.90;;;;;;4990042;28;20456;-81
2023/01/11 02:20:12;;;;;;;186.70;180.67;;;9.20;99.90;;;;;;4990303;28;20477;-81
2023/01/11 02:23:04;;;;;;;282.93;274.17;;;9.30;99.90;;;;;;4984381;28;20451;-82
2023/01/11 02:26:08;;;;;;;187.90;181.63;;;9.30;99.90;;;;;;5000977;28;20482;-82
2023/01/11 02:28:41;;;;;;;364.10;352.10;;;9.20;99.90;;;;;;4983815;28;20461;-82
2023/01/11 02:31:15;;;;;;;397.13;383.70;;;9.20;99.90;;;;;;4982559;28;20455;-81
2023/01/11 02:33:52;;;;;;;433.27;417.70;;;9.20;99.90;;;;;;4986576;28;20456;-82
2023/01/11 02:36:34;;;;;;;480.30;461.67;;;9.10;99.90;;;;;;5001559;28;20473;-81
2023/01/11 02:39:09;;;;;;;516.90;495.20;;;9.10;99.90;;;;;;4999981;28;20839;-81
2023/01/11 02:47:26;;;;;;;615.23;580.87;;;9.10;99.90;;;;;;4994402;28;20478;-80
2023/01/11 02:49:58;;;;;;;623.33;587.80;;;9.10;99.90;;;;;;4997728;28;20454;-81
2023/01/11 02:52:32;;;;;;;632.80;593.77;;;9.20;99.90;;;;;;4996964;28;20471;-83
2023/01/11 02:55:00;;;;;;;629.90;590.93;;;9.30;99.90;;;;;;4982866;28;20486;-83
2023/01/11 02:57:29;;;;;;;635.47;596.77;;;9.30;99.90;;;;;;4993691;28;20447;-80
2023/01/11 02:59:58;;;;;;;511.33;486.73;;;9.40;99.90;;;;;;4984768;28;20455;-82
2023/01/11 03:02:26;;;;;;;421.37;404.23;;;9.60;99.90;;;;;;4996717;28;20454;-81
2023/01/11 03:04:53;;;;;;;377.53;363.10;;;9.90;99.90;;;;;;4993784;28;20470;-81
2023/01/11 03:07:35;;;;;;;394.87;379.27;;;10.00;99.90;;;;;;4986055;28;20476;-81
2023/01/11 03:10:15;;;;;;;369.57;355.57;;;10.10;99.90;;;;;;4999881;28;20457;-81
2023/01/11 03:12:54;;;;;;;412.43;396.33;;;10.30;99.90;;;;;;5000270;28;20454;-81
2023/01/11 03:15:40;;;;;;;410.83;394.83;;;10.20;99.90;;;;;;4994565;28;20490;-81
2023/01/11 03:18:15;;;;;;;409.70;393.73;;;10.30;99.90;;;;;;4991475;28;20961;-82
2023/01/11 03:20:48;;;;;;;410.83;394.83;;;10.40;99.90;;;;;;4992804;28;20449;-82
2023/01/11 03:23:21;;;;;;;439.03;421.23;;;10.60;99.90;;;;;;4995621;28;20462;-82
2023/01/11 03:25:57;;;;;;;435.10;417.73;;;10.70;99.90;;;;;;4981592;28;20470;-81
2023/01/11 03:28:34;;;;;;;439.53;422.03;;;10.90;99.90;;;;;;4981552;28;20453;-82
2023/01/11 03:31:07;;;;;;;426.67;410.20;;;10.90;99.90;;;;;;4981543;28;20978;-84
2023/01/11 03:33:41;;;;;;;430.70;414.00;;;11.00;99.90;;;;;;4982192;28;20450;-81
2023/01/11 03:36:16;;;;;;;431.30;414.20;;;11.00;99.90;;;;;;4981697;28;20474;-81
2023/01/11 03:38:47;;;;;;;458.67;441.90;;;11.00;99.90;;;;;;4995147;28;20479;-81
2023/01/11 03:41:19;;;;;;;502.33;482.43;;;11.00;99.90;;;;;;4984626;28;20451;-82
2023/01/11 03:43:49;;;;;;;534.27;511.33;;;10.80;99.90;;;;;;4995339;28;20461;-82
2023/01/11 03:46:20;;;;;;;546.33;522.43;;;10.80;99.90;;;;;;4981455;28;20477;-81
2023/01/11 03:48:51;;;;;;;586.63;558.57;;;10.70;99.90;;;;;;5000128;28;20512;-81
2023/01/11 03:51:22;;;;;;;585.60;557.70;;;10.70;99.90;;;;;;4990524;28;20458;-82
2023/01/11 03:53:50;;;;;;;556.67;531.40;;;10.60;99.90;;;;;;4996578;28;20466;-81
2023/01/11 03:56:24;;;;;;;571.63;544.53;;;10.70;99.90;;;;;;4980649;28;20557;-81
2023/01/11 03:58:51;;;;;;;596.03;565.50;;;10.60;99.90;;;;;;4997112;28;20461;-82
2023/01/11 04:01:19;;;;;;;603.73;572.03;;;10.60;99.90;;;;;;4985435;28;20459;-82
2023/01/11 04:03:46;;;;;;;617.60;584.60;;;10.60;99.90;;;;;;5000035;28;20828;-81
2023/01/11 04:06:14;;;;;;;620.80;587.60;;;10.50;99.90;;;;;;4989053;28;20482;-81
2023/01/11 04:08:40;;;;;;;587.27;557.90;;;10.60;99.90;;;;;;4981625;28;21031;-81
2023/01/11 04:11:07;;;;;;;615.97;581.63;;;10.60;99.90;;;;;;4979245;28;20459;-81
2023/01/11 04:13:34;;;;;;;630.37;593.77;;;10.60;99.90;;;;;;4987040;28;20453;-80
2023/01/11 04:16:01;;;;;;;641.83;603.83;;;10.60;99.90;;;;;;4998455;28;20485;-82
2023/01/11 04:18:29;;;;;;;645.00;605.10;;;10.50;99.90;;;;;;4999525;28;20441;-80
2023/01/11 04:20:55;;;;;;;623.80;588.33;;;10.60;99.90;;;;;;4997944;28;20458;-80
2023/01/11 04:23:22;;;;;;;592.30;561.30;;;10.60;99.90;;;;;;4992541;28;20447;-81
2023/01/11 04:25:49;;;;;;;611.70;578.63;;;10.60;99.90;;;;;;4998148;28;20817;-81
2023/01/11 04:28:15;;;;;;;624.13;589.80;;;10.50;99.90;;;;;;4996092;28;20557;-81
2023/01/11 04:30:42;;;;;;;635.50;599.23;;;10.50;99.90;;;;;;4990646;28;20467;-80
2023/01/11 04:33:12;;;;;;;637.97;600.87;;;10.50;99.90;;;;;;4984451;28;20483;-81
2023/01/11 04:35:40;;;;;;;629.53;595.53;;;10.50;99.90;;;;;;4988155;28;20526;-81
2023/01/11 04:38:07;;;;;;;619.43;586.43;;;10.60;99.90;;;;;;4987226;28;20486;-81
2023/01/11 04:40:34;;;;;;;591.87;562.60;;;10.60;99.90;;;;;;4987547;28;20454;-81
2023/01/11 04:43:01;;;;;;;591.50;561.00;;;10.60;99.90;;;;;;4980028;28;20818;-80
2023/01/11 04:45:28;;;;;;;622.20;588.13;;;10.60;99.90;;;;;;4988303;28;20481;-80
2023/01/11 04:47:55;;;;;;;622.80;589.10;;;10.60;99.90;;;;;;4990887;28;20847;-81
2023/01/11 04:50:22;;;;;;;633.33;598.23;;;10.60;99.90;;;;;;4986956;28;20455;-79
2023/01/11 04:52:50;;;;;;;611.67;578.40;;;10.60;99.90;;;;;;4977838;28;20454;-80
2023/01/11 04:55:17;;;;;;;630.03;595.47;;;10.60;99.90;;;;;;4978778;28;20485;-80
2023/01/11 04:57:44;;;;;;;631.47;595.17;;;10.60;99.90;;;;;;4986134;28;20442;-80
2023/01/11 05:00:12;;;;;;;612.60;579.13;;;10.60;99.90;;;;;;4986855;28;20458;-80
2023/01/11 05:02:39;;;;;;;626.20;592.37;;;10.60;99.90;;;;;;4978679;28;20462;-79
2023/01/11 05:05:07;;;;;;;623.27;588.13;;;10.60;99.90;;;;;;4984203;28;20478;-80
2023/01/11 05:07:34;;;;;;;593.67;562.20;;;10.50;99.90;;;;;;4996620;28;20489;-80
2023/01/11 05:10:02;;;;;;;583.03;554.03;;;10.60;99.90;;;;;;4990520;28;20824;-80
2023/01/11 05:12:29;;;;;;;578.17;548.87;;;10.60;99.90;;;;;;4977857;28;20463;-81
2023/01/11 05:14:56;;;;;;;578.57;549.97;;;10.70;99.90;;;;;;4982769;28;20489;-81
2023/01/11 05:17:23;;;;;;;582.30;553.13;;;10.70;99.90;;;;;;4987217;28;20452;-83
2023/01/11 05:19:50;;;;;;;630.93;594.73;;;10.60;99.90;;;;;;4999114;28;20457;-81
2023/01/11 05:22:16;;;;;;;659.27;620.53;;;10.60;99.90;;;;;;4998947;28;21075;-81
2023/01/11 05:24:43;;;;;;;672.87;631.27;;;10.70;99.90;;;;;;4984196;28;20517;-81
2023/01/11 05:27:11;;;;;;;689.10;644.53;;;10.60;99.90;;;;;;4983283;28;20482;-82
2023/01/11 05:29:38;;;;;;;700.13;653.33;;;10.60;99.90;;;;;;4993003;28;20454;-81
2023/01/11 05:32:05;;;;;;;700.60;651.43;;;10.60;99.90;;;;;;5001872;28;20552;-81
2023/01/11 05:34:32;;;;;;;699.77;646.10;;;10.70;99.90;;;;;;4990251;28;20461;-82
2023/01/11 05:36:59;;;;;;;703.83;651.50;;;10.70;99.90;;;;;;4988197;28;20446;-80
2023/01/11 05:39:26;;;;;;;695.80;642.90;;;10.70;99.90;;;;;;4985667;28;20461;-80
2023/01/11 05:41:53;;;;;;;703.47;647.30;;;10.70;99.90;;;;;;4982304;28;20845;-81
2023/01/11 05:47:05;;;;;;;736.17;675.50;;;10.70;99.90;;;;;;4983397;28;20468;-81
2023/01/11 05:49:32;;;;;;;731.13;670.80;;;10.70;99.90;;;;;;4983687;28;20909;-80
2023/01/11 05:52:00;;;;;;;722.07;663.37;;;10.70;99.90;;;;;;4983735;28;20451;-82
2023/01/11 05:54:27;;;;;;;722.77;664.00;;;10.80;99.90;;;;;;4988280;28;20462;-83
2023/01/11 05:56:56;;;;;;;705.57;646.03;;;10.70;99.90;;;;;;4991993;28;20454;-83
2023/01/11 05:59:25;;;;;;;713.37;652.30;;;10.80;99.90;;;;;;4985908;28;20463;-82
2023/01/11 06:01:52;;;;;;;713.00;653.20;;;10.80;99.90;;;;;;4990282;28;20450;-83
2023/01/11 06:04:19;;;;;;;729.87;672.20;;;10.80;99.90;;;;;;4994878;28;20965;-82
2023/01/11 06:06:45;;;;;;;726.13;669.63;;;10.90;99.90;;;;;;4993222;28;20471;-84
2023/01/11 06:09:12;;;;;;;727.10;668.20;;;10.80;99.90;;;;;;4988334;28;20458;-83
2023/01/11 06:11:39;;;;;;;730.27;672.47;;;10.90;99.90;;;;;;4994626;28;20463;-83
2023/01/11 06:14:05;;;;;;;730.73;671.37;;;10.80;99.90;;;;;;4983090;28;20493;-85
2023/01/11 06:16:35;;;;;;;712.70;654.60;;;10.90;99.90;;;;;;5002363;28;20489;-83
2023/01/11 06:19:02;;;;;;;718.37;659.37;;;10.90;99.90;;;;;;5002772;28;20458;-81
2023/01/11 06:21:29;;;;;;;708.00;648.87;;;10.90;99.90;;;;;;4988515;28;20486;-81
2023/01/11 06:23:55;;;;;;;716.70;657.70;;;10.90;99.90;;;;;;4988931;28;20457;-80
2023/01/11 06:26:23;;;;;;;706.03;648.37;;;11.00;99.90;;;;;;4981230;28;20483;-81
2023/01/11 06:28:50;;;;;;;712.60;656.37;;;11.00;99.90;;;;;;4979669;28;20479;-80
2023/01/11 06:31:17;;;;;;;699.03;643.47;;;11.10;99.90;;;;;;4980466;28;20455;-80
2023/01/11 06:33:46;;;;;;;697.70;641.37;;;11.00;99.90;;;;;;4978463;28;20466;-79
2023/01/11 06:36:14;;;;;;;699.27;641.87;;;11.00;99.90;;;;;;4978310;28;20475;-80
2023/01/11 06:38:41;;;;;;;715.77;656.47;;;11.00;99.90;;;;;;4978858;28;20455;-81
2023/01/11 06:41:09;;;;;;;713.83;653.70;;;10.90;99.90;;;;;;4979674;28;20464;-80
2023/01/11 06:43:39;;;;;;;703.00;642.10;;;10.90;99.90;;;;;;4979569;28;20973;-80
2023/01/11 06:46:10;;;;;;;719.13;657.10;;;11.00;99.90;;;;;;4980161;28;21149;-80
2023/01/11 06:48:37;;;;;;;717.73;656.10;;;10.90;99.90;;;;;;4980010;28;20483;-80
2023/01/11 06:51:05;;;;;;;715.70;655.27;;;10.90;99.90;;;;;;4979462;28;20467;-80
2023/01/11 06:53:32;;;;;;;720.83;659.77;;;10.90;99.90;;;;;;4980297;28;20460;-80
2023/01/11 06:55:59;;;;;;;717.63;656.60;;;10.90;99.90;;;;;;4980051;28;20502;-80
2023/01/11 06:58:26;;;;;;;696.53;638.73;;;10.90;99.90;;;;;;4979479;28;20462;-80
2023/01/11 07:00:54;;;;;;;691.07;632.83;;;11.00;99.90;;;;;;4979737;28;20997;-81
2023/01/11 07:03:22;;;;;;;690.73;633.73;;;10.90;99.90;;;;;;4980446;28;20881;-80
2023/01/11 07:05:50;;;;;;;681.20;627.17;;;11.10;99.90;;;;;;4979261;28;20859;-80
2023/01/11 07:08:18;;;;;;;673.17;620.50;;;11.00;99.90;;;;;;4978504;28;20479;-80
2023/01/11 07:10:45;;;;;;;669.00;618.13;;;11.00;99.90;;;;;;4979569;28;20462;-80
2023/01/11 07:13:14;;;;;;;668.37;618.17;;;11.00;99.90;;;;;;4980942;28;20470;-82
2023/01/11 07:15:41;;;;;;;674.53;623.90;;;11.00;99.90;;;;;;4980125;28;20881;-80
2023/01/11 07:18:09;;;;;;;680.00;628.53;;;11.00;99.90;;;;;;4980414;28;20861;-80
2023/01/11 07:20:35;;;;;;;696.30;644.60;;;10.90;99.90;;;;;;4980711;28;20461;-81
2023/01/11 07:23:02;;;;;;;691.30;640.23;;;10.90;99.90;;;;;;4979628;28;20459;-82
2023/01/11 07:25:31;;;;;;;682.13;631.03;;;10.90;99.90;;;;;;4979019;28;20467;-81
2023/01/11 07:27:59;;;;;;;689.40;638.10;;;10.90;99.90;;;;;;4980293;28;20479;-81
2023/01/11 07:30:27;;;;;;;696.67;644.63;;;10.90;99.90;;;;;;4981533;28;20469;-80
2023/01/11 07:32:54;;;;;;;697.23;645.07;;;10.80;99.90;;;;;;4981281;28;20465;-81
2023/01/11 07:35:21;;;;;;;711.97;659.57;;;10.80;99.90;;;;;;4980709;28;20483;-80
2023/01/11 07:37:48;;;;;;;710.80;658.80;;;10.80;99.90;;;;;;4980827;28;20837;-81
2023/01/11 07:40:16;;;;;;;701.20;648.50;;;10.70;99.90;;;;;;4981296;28;20514;-80
2023/01/11 07:45:34;;;;;;;711.93;658.33;;;10.60;99.90;;;;;;4979121;28;20965;-81
2023/01/11 07:48:01;;;;;;;717.97;662.87;;;10.60;99.90;;;;;;4980208;28;20479;-80
2023/01/11 07:50:27;;;;;;;717.70;662.03;;;10.60;99.90;;;;;;4979007;28;20458;-82
2023/01/11 07:52:54;;;;;;;716.90;659.70;;;10.60;99.90;;;;;;4979656;28;20462;-80
2023/01/11 07:55:22;;;;;;;710.83;653.20;;;10.60;99.90;;;;;;4978188;28;20851;-80
2023/01/11 07:57:50;;;;;;;712.80;654.80;;;10.60;99.90;;;;;;4979041;28;20908;-80
2023/01/11 08:00:17;;;;;;;710.57;651.60;;;10.50;99.90;;;;;;4979539;28;20469;-81
2023/01/11 08:02:44;;;;;;;711.37;652.70;;;10.50;99.90;;;;;;4979976;28;20459;-80
2023/01/11 08:05:11;;;;;;;720.13;661.77;;;10.50;99.90;;;;;;4979964;28;20475;-81
2023/01/11 08:07:40;;;;;;;715.17;657.93;;;10.50;99.90;;;;;;4979723;28;20462;-81
2023/01/11 08:10:09;;;;;;;727.73;669.93;;;10.50;99.90;;;;;;4980366;28;20458;-81
2023/01/11 08:15:26;;;;;;;711.03;653.03;;;10.60;99.90;;;;;;4980271;28;20470;-81
2023/01/11 08:17:53;;;;;;;723.10;664.33;;;10.60;99.90;;;;;;4980841;28;20454;-81
2023/01/11 08:20:20;;;;;;;739.37;679.97;;;10.60;99.90;;;;;;4980756;28;20463;-81
2023/01/11 08:22:47;;;;;;;724.53;665.27;;;10.50;99.90;;;;;;4980582;28;20459;-80
2023/01/11 08:25:14;;;;;;;739.60;679.73;;;10.50;99.90;;;;;;4979551;28;20475;-81
2023/01/11 08:27:40;;;;;;;734.23;674.97;;;10.50;99.90;;;;;;4980330;28;20454;-82
2023/01/11 08:30:09;;;;;;;729.30;668.70;;;10.50;99.90;;;;;;4990575;28;20450;-82
2023/01/11 08:32:37;;;;;;;728.43;668.97;;;10.50;99.90;;;;;;4986910;28;20451;-81
2023/01/11 08:35:04;;;;;;;727.07;668.03;;;10.60;99.90;;;;;;4987098;28;20557;-81
2023/01/11 08:37:31;;;;;;;730.60;671.83;;;10.60;99.90;;;;;;4997301;28;20455;-81
2023/01/11 08:39:57;;;;;;;733.33;674.13;;;10.60;99.90;;;;;;4997947;28;20458;-82
2023/01/11 08:42:24;;;;;;;735.17;676.60;;;10.60;99.90;;;;;;4981113;28;20826;-81
2023/01/11 08:44:51;;;;;;;734.80;676.00;;;10.60;99.90;;;;;;4981892;28;20479;-81
2023/01/11 08:47:18;;;;;;;728.00;670.43;;;10.70;99.90;;;;;;4983382;28;20455;-81
2023/01/11 08:49:46;;;;;;;730.70;673.80;;;10.70;99.90;;;;;;4995123;28;20482;-81
2023/01/11 08:52:13;;;;;;;722.93;666.97;;;10.70;99.90;;;;;;4984869;28;20454;-80
2023/01/11 08:54:41;;;;;;;727.53;671.73;;;10.70;99.90;;;;;;5001139;28;20501;-82
2023/01/11 08:57:08;;;;;;;729.37;674.63;;;10.70;99.90;;;;;;4998668;28;20458;-82
2023/01/11 08:59:35;;;;;;;730.83;676.93;;;10.60;99.90;;;;;;4992655;28;20450;-81
2023/01/11 09:02:03;;;;;;;722.50;669.77;;;10.70;99.90;;;;;;5004362;28;20546;-81
2023/01/11 09:04:30;;;;;;;710.03;658.93;;;10.70;99.90;;;;;;4992850;28;20550;-80
2023/01/11 09:06:58;;;;;;;702.63;652.90;;;10.80;99.90;;;;;;4984464;28;20456;-81
2023/01/11 09:09:25;;;;;;;686.80;639.37;;;10.80;99.90;;;;;;4984439;28;20483;-80
2023/01/11 09:11:55;;;;;;;667.23;624.93;;;10.80;99.90;;;;;;4985636;28;20475;-83
2023/01/11 09:14:23;;;;;;;656.70;615.07;;;10.90;99.90;;;;;;5003347;28;20446;-82
2023/01/11 09:16:50;;;;;;;650.00;609.60;;;10.90;99.90;;;;;;4991101;28;20491;-82
2023/01/11 09:19:17;;;;;;;635.70;597.43;;;10.90;99.90;;;;;;4984604;28;20462;-82
2023/01/11 09:21:44;;;;;;;601.87;569.33;;;11.00;99.90;;;;;;4996446;28;20898;-81
2023/01/11 09:24:12;;;;;;;595.43;563.50;;;11.00;99.90;;;;;;4990399;28;20451;-81
2023/01/11 09:26:40;;;;;;;562.37;534.03;;;10.90;99.90;;;;;;4988639;28;20470;-81
2023/01/11 09:29:07;;;;;;;555.97;527.03;;;11.00;99.90;;;;;;4994986;28;20474;-81
2023/01/11 09:31:34;;;;;;;527.17;501.03;;;11.00;99.90;;;;;;4998146;28;20460;-81
2023/01/11 09:34:01;;;;;;;522.33;495.70;;;10.90;99.90;;;;;;4996281;28;20461;-82
2023/01/11 09:36:29;;;;;;;478.10;455.30;;;11.00;99.90;;;;;;5002692;28;20555;-81
2023/01/11 09:38:59;;;;;;;506.43;482.07;;;10.90;99.90;;;;;;4999380;28;20453;-83
2023/01/11 09:41:41;;;;;;;494.90;471.07;;;11.00;99.90;;;;;;5000830;28;20461;-82
2023/01/11 09:44:15;;;;;;;486.73;463.40;;;11.00;99.90;;;;;;4982777;28;20828;-81
2023/01/11 09:46:45;;;;;;;478.67;455.87;;;10.90;99.90;;;;;;4984962;28;20470;-81
2023/01/11 09:49:17;;;;;;;470.60;446.07;;;10.90;99.90;;;;;;4995211;28;20470;-80
2023/01/11 09:51:45;;;;;;;442.67;421.67;;;10.90;99.90;;;;;;5001924;28;21007;-80
2023/01/11 09:54:17;;;;;;;446.00;424.57;;;10.90;99.90;;;;;;5002224;28;20525;-81
2023/01/11 09:56:56;;;;;;;430.90;411.23;;;10.90;99.90;;;;;;5001970;28;20496;-81
2023/01/11 09:59:33;;;;;;;389.03;370.93;;;10.90;99.90;;;;;;5001754;28;20477;-83
2023/01/11 10:02:10;;;;;;;322.50;306.90;;;10.80;99.90;;;;;;5002047;28;20960;-81
2023/01/11 10:05:04;;;;;;;294.93;281.23;;;10.90;99.90;;;;;;5001688;28;21014;-80
2023/01/11 10:07:52;;;;;;;280.63;268.73;;;10.90;99.90;;;;;;5001707;28;20458;-80
2023/01/11 10:10:34;;;;;;;265.53;254.33;;;11.00;99.90;;;;;;5000961;28;20485;-83
2023/01/11 10:13:12;;;;;;;320.50;306.70;;;11.00;99.90;;;;;;5001404;28;20485;-81
2023/01/11 10:15:46;;;;;;;273.90;262.03;;;10.90;99.90;;;;;;5000220;28;20547;-80
2023/01/11 10:18:40;;;;;;;277.10;264.60;;;10.90;99.90;;;;;;5000644;28;20544;-80
2023/01/11 10:21:12;;;;;;;206.87;199.07;;;10.90;99.90;;;;;;5000605;28;20453;-81
2023/01/11 10:23:48;;;;;;;192.27;184.50;;;10.90;99.90;;;;;;5001559;28;20450;-82
2023/01/11 10:26:25;;;;;;;208.63;200.03;;;10.90;99.90;;;;;;5001958;28;20481;-81
2023/01/11 10:29:13;;;;;;;182.53;174.03;;;10.90;99.90;;;;;;5000947;28;20540;-81
2023/01/11 10:31:57;;;;;;;217.40;209.67;;;10.90;99.90;;;;;;5001120;28;20468;-81
2023/01/11 10:34:41;;;;;;;202.20;194.03;;;10.90;99.90;;;;;;5001404;28;20462;-80
2023/01/11 10:37:29;;;;;;;194.83;187.47;;;10.90;99.90;;;;;;5000453;28;20450;-81
2023/01/11 10:42:48;;;;;;;234.60;225.50;;;10.90;99.90;;;;;;4999337;28;20441;-82
2023/01/11 10:45:21;;;;;;;154.70;148.10;;;10.90;99.90;;;;;;4999556;28;20470;-84
2023/01/11 10:47:54;;;;;;;90.10;86.30;;;10.90;99.90;;;;;;5000532;28;20463;-80
2023/01/11 10:50:27;;;;;;;67.30;62.70;;;10.80;99.90;;;;;;5000651;28;20478;-81
2023/01/11 10:53:01;;;;;;;99.60;95.17;;;10.90;99.90;;;;;;5000538;28;20454;-81
2023/01/11 10:55:38;;;;;;;59.27;56.50;;;10.90;99.90;;;;;;5000438;28;20478;-80
2023/01/11 10:58:13;;;;;;;123.47;118.83;;;10.90;99.90;;;;;;5000711;28;20438;-83
2023/01/11 11:00:50;;;;;;;12.25;10.68;;;10.70;99.90;;;;;;5000449;28;20468;-80
2023/01/11 11:03:43;;;;;;;30.50;27.57;;;10.50;99.90;;;;;;4986928;28;20202;-80
2023/01/11 11:06:20;;;;;;;42.97;40.43;;;10.50;99.90;;;;;;4988943;28;20473;-81
2023/01/11 11:08:54;;;;;;;48.17;45.47;;;10.50;99.90;;;;;;4992954;28;20481;-81
2023/01/11 11:11:27;;;;;;;42.20;39.50;;;10.30;99.90;;;;;;4991709;28;20454;-81
2023/01/11 11:14:02;;;;;;;25.17;23.43;;;10.30;99.90;;;;;;4995162;28;20455;-81
2023/01/11 11:16:44;;;;;;;23.20;21.63;;;10.20;99.90;;;;;;4982755;28;20500;-83
2023/01/11 11:19:14;;;;;;;28.73;27.03;;;10.10;99.90;;;;;;4982452;28;20461;-82
2023/01/11 11:21:42;;;;;;;29.17;27.63;;;10.00;99.90;;;;;;4982930;28;20459;-80
2023/01/11 11:24:19;;;;;;;36.50;34.13;;;10.10;99.90;;;;;;4983209;28;20462;-82
2023/01/11 11:26:53;;;;;;;28.60;26.77;;;10.30;99.90;;;;;;4982220;28;21047;-81
2023/01/11 11:29:27;;;;;;;20.93;18.23;;;10.60;99.90;;;;;;4990580;28;20543;-83
2023/01/11 11:31:58;;;;;;;27.00;24.90;;;10.70;99.90;;;;;;4985174;28;20454;-85
2023/01/11 11:34:26;;;;;;;27.37;25.37;;;10.70;99.90;;;;;;4988387;28;20460;-81
2023/01/11 11:36:54;;;;;;;25.60;23.47;;;10.70;99.90;;;;;;4989190;28;20499;-84
2023/01/11 11:39:23;;;;;;;18.83;12.87;;;10.90;99.90;;;;;;4994692;28;20454;-82
2023/01/11 11:41:52;;;;;;;17.63;7.40;;;11.10;99.90;;;;;;4995629;28;20553;-83
2023/01/11 11:44:23;;;;;;;10.53;5.30;;;11.30;99.90;;;;;;4981932;28;20619;-82
2023/01/11 11:47:02;;;;;;;17.75;3.75;;;11.50;99.90;;;;;;4991812;28;20465;-81
2023/01/11 11:49:30;;;;;;;14.43;3.00;;;11.90;99.90;;;;;;5000075;28;20677;-81
2023/01/11 11:51:59;;;;;;;14.13;3.60;;;11.90;99.90;;;;;;4996713;28;20516;-82
2023/01/11 11:54:30;;;;;;;13.03;4.30;;;11.90;99.90;;;;;;4999362;28;20191;-82
2023/01/11 11:56:59;;;;;;;11.93;2.90;;;12.00;99.90;;;;;;4989936;28;20442;-83
2023/01/11 11:59:31;;;;;;;11.30;3.43;;;11.90;99.90;;;;;;4988803;28;20530;-83
2023/01/11 12:02:03;;;;;;;17.73;2.70;;;11.70;99.90;;;;;;4981185;28;20458;-82
2023/01/11 12:04:43;;;;;;;9.30;2.20;;;11.60;99.90;;;;;;4981183;28;20451;-84
2023/01/11 12:07:14;;;;;;;9.53;2.90;;;11.20;99.90;;;;;;4980920;28;20446;-83
2023/01/11 12:09:45;;;;;;;16.10;3.30;;;11.00;99.90;;;;;;4995366;28;20537;-81
2023/01/11 12:12:17;;;;;;;10.00;2.90;;;10.70;99.90;;;;;;4985740;28;20486;-83
2023/01/11 12:14:44;;;;;;;13.03;3.23;;;10.60;99.90;;;;;;4991697;28;20454;-82
2023/01/11 12:17:23;;;;;;;15.23;3.23;;;10.70;99.90;;;;;;4999907;28;20708;-81
2023/01/11 12:19:50;;;;;;;27.37;5.07;;;10.90;99.90;;;;;;4987719;28;20454;-82
2023/01/11 12:22:21;;;;;;;11.63;2.47;;;11.50;99.90;;;;;;4981316;28;20839;-82
2023/01/11 12:25:03;;;;;;;9.77;3.20;;;12.00;99.90;;;;;;4982182;28;20454;-83
2023/01/11 12:27:40;;;;;;;16.57;3.00;;;12.40;99.90;;;;;;4999080;28;20454;-83
2023/01/11 12:30:15;;;;;;;11.73;3.17;;;12.80;99.90;;;;;;4989608;28;21027;-84
2023/01/11 12:33:15;;;;;;;16.37;2.80;;;12.80;99.90;;;;;;4979763;28;20456;-82
2023/01/11 12:35:52;;;;;;;12.00;2.50;;;12.80;99.90;;;;;;4981524;28;20471;-82
2023/01/11 12:38:30;;;;;;;12.07;2.13;;;12.90;99.90;;;;;;4990612;28;20454;-82
2023/01/11 12:41:18;;;;;;;13.63;2.13;;;13.00;99.90;;;;;;4993584;28;20800;-83
2023/01/11 12:44:04;;;;;;;13.00;2.57;;;12.60;99.90;;;;;;4999884;28;20466;-82
2023/01/11 12:46:53;;;;;;;11.77;3.20;;;12.50;99.90;;;;;;4999460;28;20483;-82
2023/01/11 12:49:39;;;;;;;23.50;2.10;;;12.30;99.90;;;;;;5000086;28;20490;-84
2023/01/11 12:52:38;;;;;;;14.10;2.87;;;12.20;99.90;;;;;;4999525;28;21012;-83
2023/01/11 12:55:19;;;;;;;17.13;2.50;;;12.10;99.90;;;;;;4987360;28;20911;-82